Raleigh, North Carolina
Current Conditions -  °F | °C
As of 11:51 AM on Saturday 20 Dec 2014 (Local Time) from KRDU Reporting Station
Light Rain Light Rain  
Wind Chill: 29°   Ceiling: 4500
Heat Index: 34°   Visibility: 5mi
Dew Point: 30°   Wind: 6mph
Humidity: 85%   Direction: 30°NNE
Pressure: 30.29"   Gusts: NA
Location:  35.79°N, 78.64°W
Report Text: KRDU 201651Z 03005KT 5SM -RA BR SCT008 BKN045 OVC055 01/M01 A3029 RMK AO2 UPB16E24DZB24E50RAB50 SLP258 P0002 T00111011
Loading
Personal Weather Stations






























Interactive Weather Map New forecast layout! Learn more

10-Day Weather Forecast

Advertisements
Track Severe Weather on mobile